Terminal Aerodrome Forecast
Issued by NWS Wilmington, NC

Home | Current Version | Previous Version | Text Only | Print | Product List | Glossary On
Versions: 1 2 3 4 5 6 7 8 9 10 11 12 13 14 15 16 17 18 19 20
000
FTUS42 KILM 301736
TAFLBT
TAF
KLBT 301736Z 3018/3118 09009KT P6SM FEW035 SCT060 BKN090 PROB30
      3107/3109 4SM TSRA BKN010CB
     FM310900 16011KT P6SM SHRA VCTS SCT015CB OVC025
     FM311200 17011KT 4SM SHRA VCTS SCT010CB OVC015
     FM311400 19013KT P6SM SHRA VCTS SCT015CB OVC035
     FM311600 21014G22KT P6SM BKN030 OVC090 PROB30 3116/3118 4SM
      TSRA OVC030CB=

USA.gov is the U.S. government's official web portal to all federal, state and local government web resources and services.